Time;durP1;ratioP1;P1;durP2;ratioP2;P2;SDS_P1;SDS_P2;PMS_P1;PMS_P2;Temp;Humidity;BMP_temperature;BMP_pressure;BME280_temperature;BME280_humidity;BME280_pressure;Samples;Min_cycle;Max_cycle;Signal;HPM_P1;HPM_P2
2023/03/06 00:01:17;;;;;;;8.50;2.50;;;-0.50;99.90;;;;;;9828758;30;20240;-84
2023/03/06 00:06:39;;;;;;;8.40;2.43;;;-0.50;99.90;;;;;;9830239;30;20299;-84
2023/03/06 00:12:00;;;;;;;5.10;2.43;;;-0.60;99.90;;;;;;9830848;30;20221;-83
2023/03/06 00:17:22;;;;;;;3.57;1.83;;;-0.70;99.90;;;;;;9809556;30;20234;-84
2023/03/06 00:22:43;;;;;;;4.50;2.27;;;-0.70;99.90;;;;;;9821292;30;20238;-84
2023/03/06 00:28:05;;;;;;;6.73;2.07;;;-0.70;99.90;;;;;;9820263;30;20219;-84
2023/03/06 00:33:26;;;;;;;8.13;2.03;;;-0.70;99.90;;;;;;9806407;30;20289;-84
2023/03/06 00:38:47;;;;;;;3.47;1.87;;;-0.80;99.90;;;;;;9809161;30;20253;-84
2023/03/06 00:44:10;;;;;;;4.00;1.97;;;-0.80;99.90;;;;;;9819248;30;20209;-84
2023/03/06 00:49:31;;;;;;;4.70;1.90;;;-0.70;99.90;;;;;;9826722;30;20246;-84
2023/03/06 00:54:53;;;;;;;3.50;1.60;;;-0.80;99.90;;;;;;9842477;30;20299;-83
2023/03/06 01:00:15;;;;;;;5.73;1.60;;;-0.90;99.90;;;;;;9828937;30;20309;-84
2023/03/06 01:05:36;;;;;;;6.87;2.00;;;-0.80;99.90;;;;;;9838289;30;20576;-84
2023/03/06 01:10:59;;;;;;;8.70;2.20;;;-1.00;99.90;;;;;;9848010;30;20210;-83
2023/03/06 01:16:20;;;;;;;3.73;2.10;;;-1.00;99.90;;;;;;9847583;30;20241;-83
2023/03/06 01:21:42;;;;;;;5.00;1.97;;;-1.10;99.90;;;;;;9812352;30;20241;-84
2023/03/06 01:27:03;;;;;;;4.47;1.90;;;-1.10;99.90;;;;;;9824350;30;20231;-84
2023/03/06 01:32:24;;;;;;;6.07;2.20;;;-1.10;99.90;;;;;;9836504;30;20217;-84
2023/03/06 01:37:47;;;;;;;4.90;2.17;;;-1.10;99.90;;;;;;9861172;30;20205;-83
2023/03/06 01:43:40;;;;;;;3.03;1.80;;;-1.20;99.90;;;;;;9835327;30;20241;-84
2023/03/06 01:49:21;;;;;;;7.37;2.23;;;-1.20;99.90;;;;;;9821209;30;20215;-84
2023/03/06 01:54:42;;;;;;;4.00;1.70;;;-1.30;99.90;;;;;;9823532;30;20213;-84
2023/03/06 02:00:12;;;;;;;5.10;2.23;;;-1.40;99.90;;;;;;9830094;30;20243;-84
2023/03/06 02:05:35;;;;;;;8.10;2.23;;;-1.40;99.90;;;;;;9868602;30;20208;-84
2023/03/06 02:11:22;;;;;;;6.47;2.97;;;-1.50;99.90;;;;;;9846996;30;20267;-84
2023/03/06 02:16:43;;;;;;;7.77;2.47;;;-1.50;99.90;;;;;;9846612;30;20245;-84
2023/03/06 02:22:06;;;;;;;4.87;2.33;;;-1.50;99.90;;;;;;9830948;30;20329;-84
2023/03/06 02:27:27;;;;;;;6.60;2.27;;;-1.60;99.90;;;;;;9830127;30;20225;-84
2023/03/06 02:32:49;;;;;;;5.43;2.43;;;-1.60;99.90;;;;;;9835510;30;20222;-84
2023/03/06 02:38:16;;;;;;;6.87;2.20;;;-1.70;99.90;;;;;;9823334;30;20206;-84
2023/03/06 02:43:39;;;;;;;5.93;3.10;;;-1.70;99.90;;;;;;9797795;30;20248;-84
2023/03/06 02:49:00;;;;;;;8.10;3.20;;;-1.80;99.90;;;;;;9827411;30;20220;-83
2023/03/06 02:54:22;;;;;;;6.87;2.97;;;-1.70;99.90;;;;;;9858566;30;20270;-84
2023/03/06 02:59:43;;;;;;;6.63;3.10;;;-1.70;99.90;;;;;;9844584;30;20244;-84
2023/03/06 03:05:04;;;;;;;8.33;3.70;;;-1.70;99.90;;;;;;9856903;30;20253;-83
2023/03/06 03:10:26;;;;;;;8.43;3.33;;;-1.80;99.90;;;;;;9845252;30;20530;-83
2023/03/06 03:16:02;;;;;;;10.97;4.17;;;-1.80;99.90;;;;;;9855085;30;20519;-84
2023/03/06 03:21:23;;;;;;;11.57;4.70;;;-1.70;99.90;;;;;;9828547;30;20435;-84
2023/03/06 03:26:46;;;;;;;11.57;4.43;;;-1.80;99.90;;;;;;9872663;30;20193;-84
2023/03/06 03:32:11;;;;;;;10.47;4.50;;;-2.00;99.90;;;;;;9849793;30;20255;-83
2023/03/06 03:37:35;;;;;;;13.27;4.37;;;-2.10;99.90;;;;;;9840683;30;20492;-84
2023/03/06 03:42:56;;;;;;;12.83;5.03;;;-2.00;99.90;;;;;;9856440;30;20235;-83
2023/03/06 03:48:19;;;;;;;17.73;7.03;;;-2.00;99.90;;;;;;9844054;30;20515;-84
2023/03/06 03:53:41;;;;;;;18.87;8.30;;;-2.00;99.90;;;;;;9796930;30;20219;-84
2023/03/06 03:59:03;;;;;;;11.27;5.77;;;-1.90;99.90;;;;;;9831187;30;20238;-84
2023/03/06 04:04:31;;;;;;;13.13;5.47;;;-2.00;99.90;;;;;;9842671;30;20217;-84
2023/03/06 04:09:53;;;;;;;7.33;3.90;;;-1.90;99.90;;;;;;9831299;30;20280;-83
2023/03/06 04:15:14;;;;;;;7.20;3.37;;;-2.00;99.90;;;;;;9841970;30;20219;-84
2023/03/06 04:20:38;;;;;;;8.13;3.73;;;-2.00;99.90;;;;;;9830374;30;20417;-83
2023/03/06 04:25:59;;;;;;;14.97;4.97;;;-2.00;99.90;;;;;;9823444;30;20214;-84
2023/03/06 04:31:21;;;;;;;12.77;5.77;;;-2.10;99.90;;;;;;9842520;30;20565;-84
2023/03/06 04:36:46;;;;;;;17.90;7.17;;;-2.10;99.90;;;;;;9830227;30;20457;-84
2023/03/06 04:42:10;;;;;;;19.47;7.40;;;-2.10;99.90;;;;;;9831374;30;20414;-84
2023/03/06 04:47:31;;;;;;;12.83;5.33;;;-2.10;99.90;;;;;;9850524;30;20200;-85
2023/03/06 04:52:52;;;;;;;8.23;4.00;;;-2.10;99.90;;;;;;9850133;30;20212;-84
2023/03/06 04:58:13;;;;;;;11.00;4.17;;;-2.10;99.90;;;;;;9847404;30;20414;-84
2023/03/06 05:03:35;;;;;;;8.73;3.80;;;-2.00;99.90;;;;;;9849738;30;20418;-84
2023/03/06 05:08:57;;;;;;;8.13;3.63;;;-2.00;99.90;;;;;;9849777;30;20557;-84
2023/03/06 05:14:18;;;;;;;8.43;4.43;;;-2.00;99.90;;;;;;9857344;30;20391;-84
2023/03/06 05:19:39;;;;;;;9.93;4.33;;;-2.10;99.90;;;;;;9836250;30;20251;-84
2023/03/06 05:25:00;;;;;;;5.50;2.90;;;-2.10;99.90;;;;;;9835505;30;20242;-84
2023/03/06 05:30:22;;;;;;;4.93;2.80;;;-2.10;99.90;;;;;;9859358;30;20209;-84
2023/03/06 05:35:48;;;;;;;7.30;2.93;;;-2.10;99.90;;;;;;9835667;30;20231;-84
2023/03/06 05:41:12;;;;;;;5.63;2.63;;;-2.10;99.90;;;;;;9838560;30;20558;-84
2023/03/06 05:46:33;;;;;;;7.73;3.30;;;-2.10;99.90;;;;;;9799934;30;20219;-84
2023/03/06 05:51:55;;;;;;;6.70;3.27;;;-2.10;99.90;;;;;;9810873;30;20216;-84
2023/03/06 05:57:18;;;;;;;8.87;4.03;;;-2.00;99.90;;;;;;9827750;30;20217;-84
2023/03/06 06:02:40;;;;;;;7.60;3.37;;;-2.00;99.90;;;;;;9847071;30;20236;-83
2023/03/06 06:08:02;;;;;;;8.00;3.47;;;-2.00;99.90;;;;;;9846751;30;20246;-84
2023/03/06 06:13:23;;;;;;;10.07;3.87;;;-2.00;99.90;;;;;;9830947;30;20353;-84
2023/03/06 06:18:45;;;;;;;8.03;3.50;;;-1.80;99.90;;;;;;9837937;30;20243;-85
2023/03/06 06:24:06;;;;;;;5.53;3.20;;;-1.70;99.90;;;;;;9818308;30;20251;-84
2023/03/06 06:29:28;;;;;;;10.13;4.27;;;-1.60;99.90;;;;;;9854534;30;20216;-84
2023/03/06 06:34:49;;;;;;;10.87;4.00;;;-1.40;99.90;;;;;;9846034;30;20232;-83
2023/03/06 06:40:11;;;;;;;6.77;3.43;;;-1.50;99.90;;;;;;9845579;30;20235;-83
2023/03/06 06:45:32;;;;;;;8.73;3.70;;;-1.40;99.90;;;;;;9819405;30;20218;-83
2023/03/06 06:50:55;;;;;;;12.57;3.70;;;-1.20;99.90;;;;;;9826294;30;20279;-80
2023/03/06 06:56:17;;;;;;;6.53;3.27;;;-0.70;99.90;;;;;;9845199;30;20555;-79
2023/03/06 07:01:38;;;;;;;7.37;2.80;;;-0.20;99.90;;;;;;9836785;30;20542;-84
2023/03/06 07:07:00;;;;;;;8.17;3.63;;;-0.10;99.40;;;;;;9818688;30;20213;-85
2023/03/06 07:12:21;;;;;;;9.43;6.40;;;0.80;95.10;;;;;;9832460;30;20211;-85
2023/03/06 07:17:42;;;;;;;9.50;4.90;;;3.20;72.30;;;;;;9841137;30;20270;-84
2023/03/06 07:23:06;;;;;;;10.23;4.13;;;4.90;32.90;;;;;;9844616;30;20246;-85
2023/03/06 07:28:27;;;;;;;7.77;4.30;;;4.20;29.60;;;;;;9844975;30;20504;-84
2023/03/06 07:33:50;;;;;;;8.30;4.53;;;4.10;35.80;;;;;;9850551;24;20548;-85
2023/03/06 07:39:11;;;;;;;9.73;4.03;;;5.70;28.10;;;;;;9859571;30;20213;-84
2023/03/06 07:44:36;;;;;;;6.10;2.87;;;6.10;24.30;;;;;;9838678;30;20225;-84
2023/03/06 07:50:01;;;;;;;6.10;3.13;;;4.90;24.60;;;;;;9821375;30;20596;-84
2023/03/06 07:55:23;;;;;;;7.33;3.70;;;4.30;28.00;;;;;;9831727;30;20213;-84
2023/03/06 08:00:44;;;;;;;18.40;7.73;;;3.90;31.20;;;;;;9842086;30;20241;-85
2023/03/06 08:06:12;;;;;;;23.17;9.13;;;3.60;33.50;;;;;;9841323;30;20218;-85
2023/03/06 08:11:33;;;;;;;34.60;14.83;;;3.40;37.70;;;;;;9872749;30;20445;-84
2023/03/06 08:17:04;;;;;;;25.43;9.23;;;3.70;24.60;;;;;;9843697;30;20213;-85
2023/03/06 08:22:26;;;;;;;16.73;6.50;;;4.70;2.00;;;;;;9826850;30;20607;-86
2023/03/06 08:27:47;;;;;;;17.83;7.87;;;7.00;66.20;;;;;;9796925;30;20207;-80
2023/03/06 08:33:09;;;;;;;10.60;5.07;;;8.90;99.90;;;;;;9823808;30;20243;-84
2023/03/06 08:38:30;;;;;;;7.43;3.43;;;10.20;99.90;;;;;;9854484;30;20217;-87
2023/03/06 08:43:51;;;;;;;5.95;3.40;;;11.00;1.00;;;;;;9842105;30;20245;-83
2023/03/06 08:49:13;;;;;;;5.05;2.47;;;11.60;93.60;;;;;;9853087;30;20219;-86
2023/03/06 08:54:35;;;;;;;5.65;3.58;;;11.90;85.00;;;;;;9848358;30;20207;-87
2023/03/06 08:59:57;;;;;;;8.98;2.67;;;12.30;99.90;;;;;;9840435;30;20231;-84
2023/03/06 09:05:18;;;;;;;5.57;1.30;;;11.40;99.90;;;;;;9837969;30;20538;-83
2023/03/06 09:10:44;;;;;;;8.20;1.45;;;10.60;99.90;;;;;;9839154;30;20215;-85
2023/03/06 09:16:06;;;;;;;4.00;1.60;;;11.20;99.90;;;;;;9820590;30;20245;-84
2023/03/06 09:21:27;;;;;;;5.23;1.30;;;11.10;99.90;;;;;;9824890;30;20302;-84
2023/03/06 09:26:49;;;;;;;3.53;1.50;;;10.50;99.90;;;;;;9839008;30;20221;-84
2023/03/06 09:32:11;;;;;;;2.90;1.07;;;9.20;99.90;;;;;;9855477;30;20303;-84
2023/03/06 09:37:33;;;;;;;22.07;8.70;;;8.50;99.90;;;;;;9841569;30;20235;-85
2023/03/06 09:42:55;;;;;;;5.03;2.60;;;8.00;99.90;;;;;;9838844;30;20230;-87
2023/03/06 09:48:27;;;;;;;5.87;2.80;;;7.90;99.90;;;;;;9840758;30;20212;-88
2023/03/06 09:53:56;;;;;;;4.87;2.13;;;8.50;1.00;;;;;;9807523;30;20222;-86
2023/03/06 09:59:24;;;;;;;5.57;2.87;;;9.10;99.90;;;;;;9808546;30;20579;-85
2023/03/06 10:04:51;;;;;;;9.43;4.03;;;10.10;99.90;;;;;;9797237;30;20269;-83
2023/03/06 10:10:44;;;;;;;3.73;2.00;;;10.80;99.90;;;;;;9869910;30;20498;-84
2023/03/06 10:16:30;;;;;;;4.27;1.70;;;11.70;1.00;;;;;;9746011;30;20226;-83
2023/03/06 10:22:12;;;;;;;4.63;2.63;;;10.90;99.90;;;;;;9741230;30;20240;-92
2023/03/06 10:27:59;;;;;;;2.83;1.10;;;8.90;1.00;;;;;;9754327;30;20225;-85
2023/03/06 10:33:38;;;;;;;5.30;2.00;;;7.20;1.00;;;;;;9735414;30;20304;-89
2023/03/06 10:39:03;;;;;;;6.77;1.60;;;8.30;1.00;;;;;;9721782;30;20235;-85
2023/03/06 10:44:25;;;;;;;3.07;1.10;;;9.90;1.00;;;;;;9752623;30;20251;-85
2023/03/06 10:49:57;;;;;;;7.27;1.50;;;9.90;99.90;;;;;;9808929;30;20296;-81
2023/03/06 10:55:28;;;;;;;4.40;2.30;;;8.80;1.00;;;;;;9828603;30;20214;-86
2023/03/06 11:01:21;;;;;;;1.73;1.03;;;7.50;56.70;;;;;;9860364;30;20272;-84
2023/03/06 11:06:42;;;;;;;7.40;1.90;;;6.60;1.00;;;;;;9875811;30;20224;-83
2023/03/06 11:12:28;;;;;;;5.40;1.23;;;6.00;1.00;;;;;;9854764;30;20210;-88
2023/03/06 11:18:24;;;;;;;2.77;1.80;;;5.70;1.00;;;;;;9849497;30;20523;-85
2023/03/06 11:23:46;;;;;;;1.90;1.10;;;5.50;1.00;;;;;;9835880;30;20229;-87
2023/03/06 11:29:37;;;;;;;5.47;2.50;;;5.30;1.00;;;;;;9845057;30;20222;-88
2023/03/06 11:35:04;;;;;;;6.77;2.37;;;5.30;1.00;;;;;;9806460;30;20257;-84
2023/03/06 11:40:25;;;;;;;2.30;1.40;;;5.30;1.00;;;;;;9831617;30;20215;-86
2023/03/06 11:46:22;;;;;;;10.17;3.13;;;5.20;1.00;;;;;;9810912;30;20219;-83
2023/03/06 11:51:50;;;;;;;6.40;3.07;;;5.10;1.00;;;;;;9745416;30;20529;-87
2023/03/06 11:57:21;;;;;;;5.30;2.07;;;5.00;1.00;;;;;;9740916;30;20232;-82
2023/03/06 12:02:54;;;;;;;15.73;6.03;;;4.70;1.00;;;;;;9768664;30;20326;-80
2023/03/06 12:08:33;;;;;;;24.03;7.97;;;4.70;1.00;;;;;;9766700;30;20300;-80
2023/03/06 12:13:57;;;;;;;13.30;6.30;;;4.70;99.90;;;;;;9765364;30;20219;-85
2023/03/06 12:19:48;;;;;;;6.37;2.40;;;4.80;99.90;;;;;;9751360;30;20300;-85
2023/03/06 12:25:31;;;;;;;7.33;2.47;;;4.70;99.90;;;;;;9794389;30;20511;-84
2023/03/06 12:31:08;;;;;;;24.50;11.60;;;4.70;99.90;;;;;;9793599;30;20225;-83
2023/03/06 12:36:48;;;;;;;10.23;4.63;;;4.80;99.90;;;;;;9804467;30;20464;-84
2023/03/06 12:42:27;;;;;;;10.83;4.70;;;4.90;99.90;;;;;;9818521;30;20244;-86
2023/03/06 12:47:55;;;;;;;6.93;2.17;;;5.00;99.90;;;;;;9823538;30;20210;-86
2023/03/06 12:53:30;;;;;;;2.27;1.13;;;5.10;99.90;;;;;;9858125;30;20209;-84
2023/03/06 12:58:53;;;;;;;4.30;1.57;;;5.10;99.90;;;;;;9825718;30;20300;-87
2023/03/06 13:04:46;;;;;;;3.30;1.20;;;5.30;1.00;;;;;;9853844;30;20432;-85
2023/03/06 13:10:26;;;;;;;5.53;1.23;;;5.20;99.90;;;;;;9850556;30;20297;-83
2023/03/06 13:16:02;;;;;;;4.83;1.97;;;5.20;1.00;;;;;;9857019;30;20309;-84
2023/03/06 13:21:59;;;;;;;5.27;2.53;;;5.30;99.90;;;;;;9821774;30;20333;-88
2023/03/06 13:28:02;;;;;;;3.33;1.30;;;5.30;99.90;;;;;;9845372;30;20281;-86
2023/03/06 13:33:24;;;;;;;2.63;1.10;;;5.30;99.90;;;;;;9847053;30;20273;-85
2023/03/06 13:38:51;;;;;;;3.23;1.27;;;5.20;1.00;;;;;;9836136;30;20201;-86
2023/03/06 13:44:25;;;;;;;1.57;0.90;;;5.30;1.00;;;;;;9831406;30;20242;-81
2023/03/06 13:49:47;;;;;;;2.93;1.50;;;5.30;99.90;;;;;;9802041;30;20218;-84
2023/03/06 13:55:29;;;;;;;3.30;2.20;;;5.30;99.90;;;;;;9798100;30;20510;-87
2023/03/06 14:00:56;;;;;;;6.93;2.93;;;5.10;99.90;;;;;;9820134;30;20244;-90
2023/03/06 14:06:39;;;;;;;4.63;2.30;;;4.90;99.90;;;;;;9823291;30;20210;-82
2023/03/06 14:12:25;;;;;;;5.00;1.80;;;4.90;99.90;;;;;;9855081;30;20447;-88
2023/03/06 14:18:13;;;;;;;3.93;2.03;;;4.80;99.90;;;;;;9843770;30;20245;-82
2023/03/06 14:23:41;;;;;;;20.20;8.60;;;4.70;99.90;;;;;;9827468;30;20233;-82
2023/03/06 14:29:02;;;;;;;25.43;8.20;;;4.70;99.90;;;;;;9855035;30;20643;-80
2023/03/06 14:34:29;;;;;;;7.90;2.60;;;4.50;99.90;;;;;;9852779;30;20260;-81
2023/03/06 14:39:55;;;;;;;6.17;2.23;;;4.40;99.90;;;;;;9844271;30;20241;-85
2023/03/06 14:45:31;;;;;;;8.57;3.57;;;4.30;99.90;;;;;;9844908;30;20209;-86
2023/03/06 14:50:56;;;;;;;6.50;2.90;;;4.30;99.90;;;;;;9842121;30;20209;-81
2023/03/06 14:56:22;;;;;;;12.10;5.93;;;4.30;99.90;;;;;;9810652;30;20262;-81
2023/03/06 15:01:46;;;;;;;7.83;3.53;;;4.20;99.90;;;;;;9852485;30;20255;-84
2023/03/06 15:07:24;;;;;;;15.67;6.80;;;4.20;99.90;;;;;;9806127;30;20256;-86
2023/03/06 15:12:45;;;;;;;11.80;2.73;;;4.10;99.90;;;;;;9826595;30;20245;-88
2023/03/06 15:18:39;;;;;;;4.60;2.37;;;4.20;99.90;;;;;;9865012;30;20640;-85
2023/03/06 15:24:22;;;;;;;3.73;1.27;;;4.00;99.90;;;;;;9848378;30;20310;-85
2023/03/06 15:29:43;;;;;;;6.53;3.30;;;3.90;99.90;;;;;;9848240;30;20214;-80
2023/03/06 15:35:24;;;;;;;16.40;4.90;;;3.80;65.40;;;;;;9834012;30;20256;-80
2023/03/06 15:40:57;;;;;;;8.53;3.67;;;3.90;48.10;;;;;;9887064;30;20240;-85
2023/03/06 15:46:19;;;;;;;9.83;3.53;;;3.80;68.20;;;;;;9878481;30;20361;-84
2023/03/06 15:51:40;;;;;;;6.90;1.80;;;3.70;1.00;;;;;;9861558;30;20212;-84
2023/03/06 15:57:04;;;;;;;6.70;2.23;;;3.50;1.00;;;;;;9876155;30;20215;-83
2023/03/06 16:02:30;;;;;;;6.93;2.20;;;3.40;1.00;;;;;;9870353;30;20241;-84
2023/03/06 16:07:54;;;;;;;10.43;2.63;;;3.20;1.00;;;;;;9846520;30;20194;-84
2023/03/06 16:13:25;;;;;;;11.33;4.43;;;3.00;1.00;;;;;;9812046;30;20201;-79
2023/03/06 16:18:48;;;;;;;7.67;4.40;;;2.90;1.00;;;;;;9873615;30;20208;-81
2023/03/06 16:24:11;;;;;;;12.17;5.80;;;3.00;1.00;;;;;;9844386;30;20255;-83
2023/03/06 16:29:33;;;;;;;15.77;8.60;;;3.00;1.00;;;;;;9832393;30;20236;-85
2023/03/06 16:34:58;;;;;;;11.53;5.90;;;2.90;1.00;;;;;;9871531;30;20232;-84
2023/03/06 16:40:28;;;;;;;14.53;5.73;;;2.90;1.00;;;;;;9862783;30;20198;-84
2023/03/06 16:45:50;;;;;;;11.00;5.50;;;2.80;1.00;;;;;;9866381;30;20201;-83
2023/03/06 16:51:14;;;;;;;14.30;4.60;;;2.70;1.00;;;;;;9855210;30;20238;-84
2023/03/06 16:56:36;;;;;;;5.67;3.30;;;2.70;1.00;;;;;;9842389;30;20447;-84
2023/03/06 17:02:09;;;;;;;9.83;3.43;;;2.60;1.00;;;;;;9866091;30;20253;-85
2023/03/06 17:07:33;;;;;;;22.83;9.77;;;2.50;1.00;;;;;;9841835;30;20216;-86
2023/03/06 17:12:56;;;;;;;25.27;11.00;;;2.40;1.00;;;;;;9865394;30;20217;-85
2023/03/06 17:18:17;;;;;;;25.43;11.10;;;2.40;1.00;;;;;;9846011;30;20228;-84
2023/03/06 17:23:39;;;;;;;33.10;14.83;;;2.40;1.00;;;;;;9862525;30;20232;-84
2023/03/06 17:29:03;;;;;;;28.60;14.10;;;2.40;1.00;;;;;;9831859;30;20285;-85
2023/03/06 17:34:27;;;;;;;85.93;33.70;;;2.30;1.00;;;;;;9860102;30;20248;-83
2023/03/06 17:39:49;;;;;;;128.40;49.47;;;2.30;1.00;;;;;;9842850;30;20258;-80
2023/03/06 17:45:11;;;;;;;109.10;39.83;;;2.20;1.00;;;;;;9843323;30;20235;-79
2023/03/06 17:50:32;;;;;;;97.43;34.30;;;2.10;1.00;;;;;;9867207;30;20209;-82
2023/03/06 17:55:56;;;;;;;145.20;53.73;;;2.10;1.00;;;;;;9819079;30;20228;-84
2023/03/06 18:01:22;;;;;;;114.20;39.90;;;2.00;1.00;;;;;;9849323;30;20862;-84
2023/03/06 18:06:44;;;;;;;92.77;33.23;;;1.80;1.00;;;;;;9813001;30;20212;-84
2023/03/06 18:12:07;;;;;;;81.57;31.70;;;1.70;1.00;;;;;;9860886;30;20215;-84
2023/03/06 18:17:29;;;;;;;57.13;24.00;;;1.60;1.00;;;;;;9871387;30;20212;-84
2023/03/06 18:22:50;;;;;;;56.03;21.30;;;1.60;1.00;;;;;;9824984;30;20259;-84
2023/03/06 18:28:12;;;;;;;65.80;23.63;;;1.50;1.00;;;;;;9820285;30;20208;-83
2023/03/06 18:33:34;;;;;;;66.30;24.03;;;1.40;1.00;;;;;;9829660;30;20244;-85
2023/03/06 18:38:57;;;;;;;51.87;18.73;;;1.30;1.00;;;;;;9819453;30;20270;-84
2023/03/06 18:44:19;;;;;;;47.10;17.30;;;1.30;1.00;;;;;;9826802;30;20232;-83
2023/03/06 18:49:44;;;;;;;40.20;16.07;;;1.20;1.00;;;;;;9842710;30;20202;-84
2023/03/06 18:55:05;;;;;;;41.93;14.33;;;1.20;1.00;;;;;;9868976;30;20284;-81
2023/03/06 19:00:26;;;;;;;25.50;9.87;;;1.10;1.00;;;;;;9853187;30;20195;-83
2023/03/06 19:05:51;;;;;;;16.83;7.83;;;1.00;1.00;;;;;;9847568;30;20223;-80
2023/03/06 19:11:15;;;;;;;13.77;6.97;;;1.00;1.00;;;;;;9850262;30;20261;-82
2023/03/06 19:16:38;;;;;;;13.00;6.30;;;0.90;1.00;;;;;;9870603;30;20225;-83
2023/03/06 19:22:01;;;;;;;11.37;5.73;;;0.90;1.00;;;;;;9851634;30;20234;-79
2023/03/06 19:27:24;;;;;;;15.73;7.67;;;0.70;1.00;;;;;;9821481;30;20290;-84
2023/03/06 19:32:45;;;;;;;13.13;6.23;;;0.70;1.00;;;;;;9841623;30;20238;-82
2023/03/06 19:38:08;;;;;;;12.90;6.63;;;0.70;1.00;;;;;;9839475;30;20221;-84
2023/03/06 19:43:30;;;;;;;15.73;7.23;;;0.60;1.00;;;;;;9803077;30;20243;-81
2023/03/06 19:48:57;;;;;;;18.23;8.47;;;0.60;1.00;;;;;;9803975;30;20218;-81
2023/03/06 19:54:22;;;;;;;31.80;13.73;;;0.60;1.00;;;;;;9823835;30;20469;-84
2023/03/06 19:59:43;;;;;;;59.10;22.83;;;0.60;9.70;;;;;;9863016;30;20212;-83
2023/03/06 20:05:05;;;;;;;100.83;35.67;;;0.50;35.10;;;;;;9867797;30;20230;-82
2023/03/06 20:10:29;;;;;;;90.63;30.87;;;0.50;99.90;;;;;;9845312;30;20210;-85
2023/03/06 20:15:50;;;;;;;79.90;32.07;;;0.40;99.90;;;;;;9844524;30;20195;-83
2023/03/06 20:21:12;;;;;;;85.73;37.97;;;0.40;99.90;;;;;;9852503;30;20214;-80
2023/03/06 20:26:35;;;;;;;86.93;36.07;;;0.30;99.90;;;;;;9855437;30;20215;-83
2023/03/06 20:31:57;;;;;;;108.63;40.47;;;0.20;99.90;;;;;;9834777;30;20248;-83
2023/03/06 20:37:19;;;;;;;141.43;47.63;;;0.30;99.90;;;;;;9816827;30;20210;-83
2023/03/06 20:42:41;;;;;;;97.93;34.93;;;0.10;1.00;;;;;;9837599;30;20242;-86
2023/03/06 20:48:02;;;;;;;82.00;28.53;;;0.10;1.00;;;;;;9818503;30;20220;-83
2023/03/06 20:53:24;;;;;;;70.10;29.23;;;0.00;1.00;;;;;;9819905;30;20207;-81
2023/03/06 20:58:46;;;;;;;63.50;23.50;;;0.00;1.00;;;;;;9831548;30;20388;-81
2023/03/06 21:04:20;;;;;;;57.17;23.30;;;0.00;1.00;;;;;;9902934;30;20284;-83
2023/03/06 21:09:43;;;;;;;78.97;29.53;;;0.00;1.00;;;;;;9881867;30;20252;-84
2023/03/06 21:15:05;;;;;;;77.93;28.23;;;-0.10;69.00;;;;;;9838883;30;20221;-84
2023/03/06 21:20:26;;;;;;;78.17;28.67;;;-0.20;99.90;;;;;;9840764;30;20198;-84
2023/03/06 21:25:48;;;;;;;78.10;31.63;;;-0.20;99.90;;;;;;9866777;30;20234;-84
2023/03/06 21:31:12;;;;;;;88.13;34.63;;;-0.40;1.00;;;;;;9854559;30;20232;-83
2023/03/06 21:36:33;;;;;;;99.50;34.80;;;-0.40;1.00;;;;;;9843451;30;20202;-82
2023/03/06 21:41:55;;;;;;;102.97;33.50;;;-0.40;1.00;;;;;;9836039;30;20268;-84
2023/03/06 21:47:17;;;;;;;91.47;30.77;;;-0.40;99.90;;;;;;9813085;30;20220;-83
2023/03/06 21:52:38;;;;;;;67.30;25.63;;;-0.40;1.00;;;;;;9825028;30;20218;-83
2023/03/06 21:57:59;;;;;;;62.47;23.33;;;-0.40;1.00;;;;;;9813006;30;20204;-83
2023/03/06 22:03:21;;;;;;;78.97;25.03;;;-0.50;37.80;;;;;;9835228;30;20250;-83
2023/03/06 22:08:42;;;;;;;73.23;24.70;;;-0.40;98.70;;;;;;9848038;30;20208;-84
2023/03/06 22:14:05;;;;;;;86.33;28.03;;;-0.50;99.10;;;;;;9832958;30;20521;-84
2023/03/06 22:19:27;;;;;;;73.93;29.67;;;-0.50;99.00;;;;;;9847100;30;20214;-81
2023/03/06 22:24:48;;;;;;;73.60;31.97;;;-0.70;98.40;;;;;;9853209;30;20242;-84
2023/03/06 22:30:10;;;;;;;91.03;37.23;;;-0.90;98.90;;;;;;9846688;30;20389;-85
2023/03/06 22:35:31;;;;;;;68.77;28.03;;;-1.00;99.50;;;;;;9829715;30;20569;-85
2023/03/06 22:40:56;;;;;;;42.53;20.50;;;-1.00;99.90;;;;;;9841262;30;20268;-83
2023/03/06 22:46:17;;;;;;;33.03;16.87;;;-1.00;99.90;;;;;;9845788;30;20233;-84
2023/03/06 22:51:39;;;;;;;32.47;16.00;;;-0.90;99.90;;;;;;9819733;30;20217;-83
2023/03/06 22:57:00;;;;;;;39.37;17.53;;;-1.00;99.90;;;;;;9844527;30;20221;-83
2023/03/06 23:02:22;;;;;;;32.33;14.80;;;-1.00;99.90;;;;;;9830362;30;20288;-85
2023/03/06 23:07:43;;;;;;;30.93;15.73;;;-1.00;99.90;;;;;;9832810;30;20508;-80
2023/03/06 23:13:05;;;;;;;30.10;15.37;;;-1.00;99.90;;;;;;9871928;30;20217;-84
2023/03/06 23:18:45;;;;;;;32.07;17.03;;;-1.10;99.90;;;;;;9861807;30;20305;-84
2023/03/06 23:24:25;;;;;;;34.37;16.27;;;-1.10;99.90;;;;;;9846641;30;20241;-80
2023/03/06 23:29:49;;;;;;;27.37;15.03;;;-1.20;99.90;;;;;;9813933;30;20220;-84
2023/03/06 23:35:10;;;;;;;27.03;14.73;;;-1.20;99.90;;;;;;9822572;30;20255;-83
2023/03/06 23:40:32;;;;;;;27.13;13.93;;;-1.20;99.90;;;;;;9811118;30;20248;-85
2023/03/06 23:45:54;;;;;;;27.77;12.93;;;-1.30;99.90;;;;;;9842093;30;20236;-83
2023/03/06 23:51:17;;;;;;;22.67;11.83;;;-1.50;99.90;;;;;;9811886;30;20221;-84
2023/03/06 23:56:39;;;;;;;18.60;10.50;;;-1.60;99.90;;;;;;9868629;30;20271;-83
